Aérodrome :
LOGIN :

S'inscrire | Disclaimer

   EN    FR    IT 

 










Légende :    VFR   VFR Marginal   IFR   IFR Intensif   IFR Très Intensif
Visi : 
Plafond : 
>= 8 km
>= 3000ft
5 à 8 km
1000 à 3000 ft
1500m à 5 km
500 à 1000 ft
800 à 1500m
200 à 500 ft
< 800m
< 200 ft
Symboles :   Orages  Brouillard  Fortes neiges  Fortes précipitations  Vent > 20 kt
SIGMETs :   Divers  Orages  Givrage  Turbulence  Onde Orograph.  Cendres Volcan.






- Altitude de l'aérodrome : 659 ft
- Code IATA : LYN


LFLY - Lyon Bron

DERNIER METAR :
  • 020700Z AUTO 16010KT CAVOK 09/04 Q1004 TEMPO 18015G25KT

METARs EXPIRÉS :
  • 020630Z AUTO 17011KT CAVOK 09/04 Q1004 TEMPO 18015G25KT
  • 020600Z AUTO 16012KT CAVOK 09/03 Q1004 TEMPO 18015G25KT
  • 020530Z AUTO 17013KT CAVOK 09/03 Q1004 NOSIG
  • 020500Z AUTO 16015KT CAVOK 09/03 Q1004 NOSIG
  • 020430Z AUTO 16011KT 130V190 CAVOK 09/03 Q1005 NOSIG
  • 012100Z AUTO 16006KT CAVOK 08/02 Q1007 NOSIG
  • 020400Z AUTO 17012KT CAVOK 09/03 Q1005 NOSIG
  • 020330Z AUTO 17015KT CAVOK 09/03 Q1005 NOSIG
  • 020300Z AUTO 17012KT CAVOK 08/02 Q1005 NOSIG
  • 020230Z AUTO 17011KT CAVOK 08/02 Q1005 NOSIG

TAF TAF LFLY
Valide du 02 à 06h jusqu'au 03 à 06h UTC


020500Z 0206/0306 18012KT CAVOK
TEMPO 0206/0212 18015G25KT
TEMPO 0212/0224 18020G30KT
PROB40
TEMPO 0215/0218 18025G45KT
TEMPO 0300/0303 18015G25KT
BECMG 0304/0305 25010KT BKN050
TEMPO 0305/0306 33010KT RA BKN020
ATIS : +33 4 72 15 87 96



MET'MAP, la Météo Aéronautique d'un coup d'oeil ! - Copyright ORBIFLY Décembre 2007 - Disclaimer

ORBIFLY MET'MAP TEAM :

Programmation & Développement : Alexandra Zaïnal
Sur une idée originale de : Baudouin d'Aumeries
Soutien technique & logistique : Manuel Goepfert
Assistance : Marc-Olivier Méhu




SOURCES & CREDITS :

   NOAA